sensor_id;sensor_type;location;lat;lon;timestamp;pressure;altitude;pressure_sealevel;temperature;humidity
32243;BME280;18731;42.830;24.390;2023-01-15T02:57:42;94895.59;;;4.18;85.04
32243;BME280;18731;42.830;24.390;2023-01-15T03:00:12;94891.97;;;4.09;85.86
32243;BME280;18731;42.830;24.390;2023-01-15T03:02:43;94890.59;;;4.17;85.55
32243;BME280;18731;42.830;24.390;2023-01-15T03:05:17;94895.09;;;4.16;85.49
32243;BME280;18731;42.830;24.390;2023-01-15T03:07:51;94892.72;;;4.15;85.66
32243;BME280;18731;42.830;24.390;2023-01-15T03:10:45;94881.69;;;4.08;85.73
32243;BME280;18731;42.830;24.390;2023-01-15T03:13:17;94897.97;;;4.20;85.62
32243;BME280;18731;42.830;24.390;2023-01-15T03:16:00;94891.63;;;4.21;85.31
32243;BME280;18731;42.830;24.390;2023-01-15T03:21:21;94875.38;;;4.04;85.75
32243;BME280;18731;42.830;24.390;2023-01-15T03:23:50;94887.41;;;4.20;85.54
32243;BME280;18731;42.830;24.390;2023-01-15T03:26:17;94880.44;;;4.29;85.40
32243;BME280;18731;42.830;24.390;2023-01-15T03:28:44;94884.44;;;4.27;85.69
32243;BME280;18731;42.830;24.390;2023-01-15T03:31:11;94879.34;;;4.35;85.76
32243;BME280;18731;42.830;24.390;2023-01-15T03:33:37;94878.72;;;4.43;84.87
32243;BME280;18731;42.830;24.390;2023-01-15T03:36:03;94868.16;;;4.43;84.97
32243;BME280;18731;42.830;24.390;2023-01-15T03:38:32;94870.19;;;4.51;84.33
32243;BME280;18731;42.830;24.390;2023-01-15T03:41:26;94880.75;;;4.51;83.96
32243;BME280;18731;42.830;24.390;2023-01-15T03:55:12;94883.56;;;4.36;84.37
32243;BME280;18731;42.830;24.390;2023-01-15T04:00:29;94885.34;;;4.41;84.35
32243;BME280;18731;42.830;24.390;2023-01-15T04:02:59;94881.94;;;4.40;84.25
32243;BME280;18731;42.830;24.390;2023-01-15T04:05:29;94878.78;;;4.38;84.31
32243;BME280;18731;42.830;24.390;2023-01-15T04:07:57;94883.47;;;4.46;84.38
32243;BME280;18731;42.830;24.390;2023-01-15T04:10:24;94890.31;;;4.47;84.36
32243;BME280;18731;42.830;24.390;2023-01-15T04:12:49;94884.25;;;4.47;84.17
32243;BME280;18731;42.830;24.390;2023-01-15T04:15:15;94879.50;;;4.44;84.25
32243;BME280;18731;42.830;24.390;2023-01-15T04:17:41;94884.53;;;4.45;84.26
32243;BME280;18731;42.830;24.390;2023-01-15T04:20:08;94895.88;;;4.46;83.94
32243;BME280;18731;42.830;24.390;2023-01-15T04:22:34;94891.94;;;4.43;83.95
32243;BME280;18731;42.830;24.390;2023-01-15T04:25:04;94893.25;;;4.46;83.76
32243;BME280;18731;42.830;24.390;2023-01-15T04:27:30;94889.84;;;4.40;83.97
32243;BME280;18731;42.830;24.390;2023-01-15T04:29:56;94896.22;;;4.39;84.04
32243;BME280;18731;42.830;24.390;2023-01-15T04:32:21;94894.59;;;4.43;84.04
32243;BME280;18731;42.830;24.390;2023-01-15T04:34:47;94881.56;;;4.23;84.36
32243;BME280;18731;42.830;24.390;2023-01-15T04:37:13;94892.53;;;4.35;84.66
32243;BME280;18731;42.830;24.390;2023-01-15T04:39:39;94900.44;;;4.40;84.52
32243;BME280;18731;42.830;24.390;2023-01-15T04:42:04;94895.59;;;4.47;84.35
32243;BME280;18731;42.830;24.390;2023-01-15T04:44:48;94883.47;;;4.46;83.92
32243;BME280;18731;42.830;24.390;2023-01-15T04:47:14;94896.06;;;4.55;83.80
32243;BME280;18731;42.830;24.390;2023-01-15T04:49:40;94885.59;;;4.44;83.96
32243;BME280;18731;42.830;24.390;2023-01-15T04:52:05;94890.91;;;4.39;84.24
32243;BME280;18731;42.830;24.390;2023-01-15T04:54:31;94912.47;;;4.51;84.04
32243;BME280;18731;42.830;24.390;2023-01-15T04:56:57;94912.72;;;4.55;83.97
32243;BME280;18731;42.830;24.390;2023-01-15T04:59:25;94907.69;;;4.53;84.07
32243;BME280;18731;42.830;24.390;2023-01-15T05:01:52;94911.66;;;4.56;83.78
32243;BME280;18731;42.830;24.390;2023-01-15T05:04:18;94920.38;;;4.57;83.63
32243;BME280;18731;42.830;24.390;2023-01-15T05:06:44;94906.72;;;4.44;83.31
32243;BME280;18731;42.830;24.390;2023-01-15T05:09:09;94900.97;;;4.37;83.53
32243;BME280;18731;42.830;24.390;2023-01-15T05:11:37;94909.19;;;4.36;84.00
32243;BME280;18731;42.830;24.390;2023-01-15T05:14:04;94912.84;;;4.40;83.78
32243;BME280;18731;42.830;24.390;2023-01-15T05:16:30;94902.69;;;4.23;84.19
32243;BME280;18731;42.830;24.390;2023-01-15T05:18:59;94904.28;;;4.24;84.86
32243;BME280;18731;42.830;24.390;2023-01-15T05:21:30;94894.25;;;4.21;84.70
32243;BME280;18731;42.830;24.390;2023-01-15T05:23:58;94912.66;;;4.31;84.71
32243;BME280;18731;42.830;24.390;2023-01-15T05:26:26;94901.81;;;4.33;84.57
32243;BME280;18731;42.830;24.390;2023-01-15T05:28:53;94903.66;;;4.32;85.01
32243;BME280;18731;42.830;24.390;2023-01-15T05:31:21;94896.75;;;4.36;84.89
32243;BME280;18731;42.830;24.390;2023-01-15T05:33:47;94896.25;;;4.34;85.01
32243;BME280;18731;42.830;24.390;2023-01-15T05:36:20;94906.59;;;4.31;84.94
32243;BME280;18731;42.830;24.390;2023-01-15T05:38:46;94898.94;;;4.29;84.67
32243;BME280;18731;42.830;24.390;2023-01-15T05:41:14;94897.03;;;4.35;84.60
32243;BME280;18731;42.830;24.390;2023-01-15T05:44:00;94881.41;;;4.38;83.67
32243;BME280;18731;42.830;24.390;2023-01-15T05:46:26;94887.50;;;4.39;83.77
32243;BME280;18731;42.830;24.390;2023-01-15T05:48:52;94892.28;;;4.37;84.04
32243;BME280;18731;42.830;24.390;2023-01-15T05:51:17;94887.25;;;4.35;84.12
32243;BME280;18731;42.830;24.390;2023-01-15T05:53:43;94880.97;;;4.31;83.73
32243;BME280;18731;42.830;24.390;2023-01-15T05:56:09;94879.88;;;4.32;84.07
32243;BME280;18731;42.830;24.390;2023-01-15T05:58:35;94889.47;;;4.23;84.08
32243;BME280;18731;42.830;24.390;2023-01-15T06:01:09;94880.81;;;4.17;83.79
32243;BME280;18731;42.830;24.390;2023-01-15T06:03:35;94876.03;;;4.19;83.58
32243;BME280;18731;42.830;24.390;2023-01-15T06:06:01;94877.63;;;4.20;83.20
32243;BME280;18731;42.830;24.390;2023-01-15T06:08:27;94860.50;;;4.13;83.10
32243;BME280;18731;42.830;24.390;2023-01-15T06:10:53;94847.06;;;4.09;82.89
32243;BME280;18731;42.830;24.390;2023-01-15T06:13:19;94868.66;;;4.16;82.49
32243;BME280;18731;42.830;24.390;2023-01-15T06:15:44;94864.22;;;4.12;82.38
32243;BME280;18731;42.830;24.390;2023-01-15T06:18:10;94869.22;;;4.13;82.26
32243;BME280;18731;42.830;24.390;2023-01-15T06:20:40;94856.66;;;4.00;82.21
32243;BME280;18731;42.830;24.390;2023-01-15T06:23:07;94868.19;;;4.09;81.77
32243;BME280;18731;42.830;24.390;2023-01-15T06:25:34;94869.53;;;4.07;81.54
32243;BME280;18731;42.830;24.390;2023-01-15T06:28:06;94867.47;;;4.04;81.15
32243;BME280;18731;42.830;24.390;2023-01-15T06:30:32;94874.34;;;4.00;80.79
32243;BME280;18731;42.830;24.390;2023-01-15T06:32:59;94862.78;;;3.96;80.78
32243;BME280;18731;42.830;24.390;2023-01-15T06:35:25;94867.50;;;3.99;80.70
32243;BME280;18731;42.830;24.390;2023-01-15T06:37:51;94862.84;;;3.85;80.46
32243;BME280;18731;42.830;24.390;2023-01-15T06:40:17;94879.63;;;4.00;80.48
32243;BME280;18731;42.830;24.390;2023-01-15T06:42:43;94859.69;;;3.83;80.90
32243;BME280;18731;42.830;24.390;2023-01-15T06:45:31;94884.41;;;3.98;81.40
32243;BME280;18731;42.830;24.390;2023-01-15T06:48:16;94885.72;;;4.00;82.06
32243;BME280;18731;42.830;24.390;2023-01-15T06:50:43;94881.50;;;3.99;82.58
32243;BME280;18731;42.830;24.390;2023-01-15T06:53:09;94881.13;;;4.11;83.08
32243;BME280;18731;42.830;24.390;2023-01-15T06:55:35;94891.63;;;4.21;83.48
32243;BME280;18731;42.830;24.390;2023-01-15T06:58:03;94902.19;;;4.21;84.02
32243;BME280;18731;42.830;24.390;2023-01-15T07:00:29;94904.88;;;4.16;84.70
32243;BME280;18731;42.830;24.390;2023-01-15T07:02:58;94891.22;;;4.04;85.38
32243;BME280;18731;42.830;24.390;2023-01-15T07:05:24;94888.44;;;3.90;86.00
32243;BME280;18731;42.830;24.390;2023-01-15T07:07:49;94899.28;;;3.88;86.93
32243;BME280;18731;42.830;24.390;2023-01-15T07:10:15;94817.66;;;3.19;87.68
32243;BME280;18731;42.830;24.390;2023-01-15T07:12:41;94911.31;;;3.66;88.84
32243;BME280;18731;42.830;24.390;2023-01-15T07:15:07;94909.41;;;3.71;88.96
32243;BME280;18731;42.830;24.390;2023-01-15T07:17:32;94903.53;;;3.84;88.70
32243;BME280;18731;42.830;24.390;2023-01-15T07:19:58;94893.50;;;3.81;89.21
32243;BME280;18731;42.830;24.390;2023-01-15T07:22:24;94882.88;;;3.92;88.91
32243;BME280;18731;42.830;24.390;2023-01-15T07:24:49;94904.06;;;4.15;88.50
32243;BME280;18731;42.830;24.390;2023-01-15T07:27:15;94904.22;;;4.29;88.44
32243;BME280;18731;42.830;24.390;2023-01-15T07:29:40;94876.28;;;4.23;88.47
32243;BME280;18731;42.830;24.390;2023-01-15T07:32:06;94903.75;;;4.51;88.08
32243;BME280;18731;42.830;24.390;2023-01-15T07:34:32;94885.53;;;4.49;87.59
32243;BME280;18731;42.830;24.390;2023-01-15T07:36:57;94908.22;;;4.79;87.49
32243;BME280;18731;42.830;24.390;2023-01-15T07:39:23;94894.41;;;4.88;86.55
32243;BME280;18731;42.830;24.390;2023-01-15T07:41:49;94885.34;;;4.94;85.83
32243;BME280;18731;42.830;24.390;2023-01-15T07:44:32;94881.56;;;5.00;85.06
32243;BME280;18731;42.830;24.390;2023-01-15T07:47:22;94895.56;;;5.24;83.26
32243;BME280;18731;42.830;24.390;2023-01-15T07:50:17;94883.06;;;5.30;81.71
32243;BME280;18731;42.830;24.390;2023-01-15T07:52:43;94887.03;;;5.51;79.71
32243;BME280;18731;42.830;24.390;2023-01-15T07:55:09;94893.31;;;5.55;78.10
32243;BME280;18731;42.830;24.390;2023-01-15T07:57:37;94889.66;;;5.51;78.78
32243;BME280;18731;42.830;24.390;2023-01-15T08:00:05;94886.66;;;5.58;78.52
32243;BME280;18731;42.830;24.390;2023-01-15T08:02:31;94873.72;;;5.56;78.23
32243;BME280;18731;42.830;24.390;2023-01-15T08:04:58;94876.28;;;5.61;79.18
32243;BME280;18731;42.830;24.390;2023-01-15T08:07:23;94895.19;;;5.73;79.47
32243;BME280;18731;42.830;24.390;2023-01-15T08:09:49;94888.25;;;5.77;79.25
32243;BME280;18731;42.830;24.390;2023-01-15T08:12:15;94879.00;;;5.94;78.96
32243;BME280;18731;42.830;24.390;2023-01-15T08:14:58;94870.91;;;6.04;77.54
32243;BME280;18731;42.830;24.390;2023-01-15T08:17:42;94880.19;;;6.20;76.99
32243;BME280;18731;42.830;24.390;2023-01-15T08:20:14;94885.44;;;6.39;75.27
32243;BME280;18731;42.830;24.390;2023-01-15T08:22:41;94840.84;;;6.27;74.23
32243;BME280;18731;42.830;24.390;2023-01-15T08:25:10;94870.31;;;6.39;73.43
32243;BME280;18731;42.830;24.390;2023-01-15T08:27:37;94888.44;;;6.65;72.90
32243;BME280;18731;42.830;24.390;2023-01-15T08:30:04;94881.16;;;6.70;72.09
32243;BME280;18731;42.830;24.390;2023-01-15T08:32:30;94888.66;;;6.82;70.64
32243;BME280;18731;42.830;24.390;2023-01-15T08:34:56;94877.84;;;6.92;70.89
32243;BME280;18731;42.830;24.390;2023-01-15T08:37:22;94880.19;;;6.94;69.98
32243;BME280;18731;42.830;24.390;2023-01-15T08:39:47;94883.53;;;6.86;69.01
32243;BME280;18731;42.830;24.390;2023-01-15T08:42:15;94877.44;;;6.85;68.22
32243;BME280;18731;42.830;24.390;2023-01-15T08:44:40;94878.63;;;6.93;68.60
32243;BME280;18731;42.830;24.390;2023-01-15T08:47:06;94859.25;;;6.92;68.20
32243;BME280;18731;42.830;24.390;2023-01-15T08:49:32;94879.03;;;7.00;67.87
32243;BME280;18731;42.830;24.390;2023-01-15T08:51:58;94871.25;;;6.76;68.31
32243;BME280;18731;42.830;24.390;2023-01-15T08:54:23;94872.22;;;6.80;68.49
32243;BME280;18731;42.830;24.390;2023-01-15T08:56:50;94871.25;;;6.76;68.49
32243;BME280;18731;42.830;24.390;2023-01-15T08:59:15;94845.81;;;6.75;68.50
32243;BME280;18731;42.830;24.390;2023-01-15T09:01:41;94856.63;;;6.92;68.42
32243;BME280;18731;42.830;24.390;2023-01-15T09:04:15;94863.28;;;7.03;67.54
32243;BME280;18731;42.830;24.390;2023-01-15T09:06:42;94858.47;;;7.05;67.88
32243;BME280;18731;42.830;24.390;2023-01-15T09:09:08;94853.06;;;7.10;68.67
32243;BME280;18731;42.830;24.390;2023-01-15T09:11:34;94861.81;;;6.97;68.14
32243;BME280;18731;42.830;24.390;2023-01-15T09:14:01;94851.19;;;6.97;66.94
32243;BME280;18731;42.830;24.390;2023-01-15T09:16:27;94856.81;;;6.96;67.27
32243;BME280;18731;42.830;24.390;2023-01-15T09:18:55;94854.84;;;6.88;67.50
32243;BME280;18731;42.830;24.390;2023-01-15T09:21:20;94848.56;;;6.84;68.03
32243;BME280;18731;42.830;24.390;2023-01-15T09:23:46;94850.41;;;6.83;68.53
32243;BME280;18731;42.830;24.390;2023-01-15T09:26:30;94851.31;;;6.92;68.22
32243;BME280;18731;42.830;24.390;2023-01-15T09:28:57;94851.91;;;6.89;67.93
32243;BME280;18731;42.830;24.390;2023-01-15T09:31:23;94843.34;;;7.06;69.49
32243;BME280;18731;42.830;24.390;2023-01-15T09:33:49;94827.69;;;7.18;68.91
32243;BME280;18731;42.830;24.390;2023-01-15T09:36:26;94830.44;;;7.27;67.20
32243;BME280;18731;42.830;24.390;2023-01-15T09:38:53;94823.56;;;7.12;67.44
32243;BME280;18731;42.830;24.390;2023-01-15T09:41:20;94830.63;;;7.17;66.85
32243;BME280;18731;42.830;24.390;2023-01-15T09:44:31;94834.09;;;7.03;66.82
32243;BME280;18731;42.830;24.390;2023-01-15T09:52:25;94810.72;;;6.92;68.32
32243;BME280;18731;42.830;24.390;2023-01-15T09:55:06;94801.06;;;7.09;67.57
32243;BME280;18731;42.830;24.390;2023-01-15T09:57:37;94806.66;;;7.08;67.99
32243;BME280;18731;42.830;24.390;2023-01-15T10:00:05;94803.13;;;6.99;68.30
32243;BME280;18731;42.830;24.390;2023-01-15T10:02:45;94784.13;;;7.55;67.61
32243;BME280;18731;42.830;24.390;2023-01-15T10:05:20;94780.22;;;8.28;64.76
32243;BME280;18731;42.830;24.390;2023-01-15T10:10:20;94769.91;;;9.32;61.02
32243;BME280;18731;42.830;24.390;2023-01-15T10:12:53;94764.88;;;9.56;59.96
32243;BME280;18731;42.830;24.390;2023-01-15T10:15:41;94772.34;;;10.06;58.41
32243;BME280;18731;42.830;24.390;2023-01-15T10:18:18;94765.72;;;10.47;56.57
32243;BME280;18731;42.830;24.390;2023-01-15T10:26:31;94753.50;;;11.46;53.39
32243;BME280;18731;42.830;24.390;2023-01-15T10:28:58;94747.75;;;11.98;53.06
32243;BME280;18731;42.830;24.390;2023-01-15T10:31:51;94741.34;;;12.36;51.98
32243;BME280;18731;42.830;24.390;2023-01-15T10:37:32;94721.16;;;12.26;52.34
32243;BME280;18731;42.830;24.390;2023-01-15T10:43:14;94712.44;;;12.17;52.97
32243;BME280;18731;42.830;24.390;2023-01-15T10:45:46;94707.47;;;12.52;51.25
32243;BME280;18731;42.830;24.390;2023-01-15T10:48:57;94703.34;;;12.79;49.47
32243;BME280;18731;42.830;24.390;2023-01-15T10:54:26;94680.00;;;13.04;49.25
32243;BME280;18731;42.830;24.390;2023-01-15T10:57:00;94667.03;;;13.06;49.30
32243;BME280;18731;42.830;24.390;2023-01-15T10:59:36;94672.31;;;13.42;48.71
32243;BME280;18731;42.830;24.390;2023-01-15T11:02:20;94661.44;;;13.79;49.41
32243;BME280;18731;42.830;24.390;2023-01-15T11:04:47;94651.75;;;13.90;47.97
32243;BME280;18731;42.830;24.390;2023-01-15T11:07:13;94656.88;;;13.95;47.50
32243;BME280;18731;42.830;24.390;2023-01-15T11:09:40;94649.72;;;14.15;48.67
32243;BME280;18731;42.830;24.390;2023-01-15T11:12:19;94649.00;;;14.34;47.27
32243;BME280;18731;42.830;24.390;2023-01-15T11:14:46;94645.91;;;14.63;47.15
32243;BME280;18731;42.830;24.390;2023-01-15T11:17:45;94631.81;;;14.86;45.59
32243;BME280;18731;42.830;24.390;2023-01-15T11:20:51;94637.19;;;14.86;45.91
32243;BME280;18731;42.830;24.390;2023-01-15T11:23:19;94628.69;;;14.84;46.16
32243;BME280;18731;42.830;24.390;2023-01-15T11:25:54;94623.78;;;15.24;44.73
32243;BME280;18731;42.830;24.390;2023-01-15T11:28:39;94615.72;;;15.24;44.16
32243;BME280;18731;42.830;24.390;2023-01-15T11:31:09;94620.94;;;15.36;46.70
32243;BME280;18731;42.830;24.390;2023-01-15T11:33:35;94605.09;;;15.31;44.23
32243;BME280;18731;42.830;24.390;2023-01-15T11:36:07;94610.72;;;15.61;43.65
32243;BME280;18731;42.830;24.390;2023-01-15T11:38:48;94599.97;;;15.61;43.96
32243;BME280;18731;42.830;24.390;2023-01-15T11:41:33;94602.19;;;15.59;41.95
32243;BME280;18731;42.830;24.390;2023-01-15T11:44:20;94599.84;;;15.38;43.16
32243;BME280;18731;42.830;24.390;2023-01-15T11:47:12;94596.72;;;15.56;43.95
32243;BME280;18731;42.830;24.390;2023-01-15T11:49:57;94585.16;;;15.71;43.18
32243;BME280;18731;42.830;24.390;2023-01-15T11:52:46;94598.25;;;16.18;42.67
32243;BME280;18731;42.830;24.390;2023-01-15T11:55:16;94590.44;;;16.36;42.33
32243;BME280;18731;42.830;24.390;2023-01-15T11:57:43;94587.03;;;16.39;40.72
32243;BME280;18731;42.830;24.390;2023-01-15T12:00:27;94573.06;;;16.56;41.79
32243;BME280;18731;42.830;24.390;2023-01-15T12:03:00;94577.44;;;17.24;40.91
32243;BME280;18731;42.830;24.390;2023-01-15T12:05:30;94569.94;;;17.44;40.13
32243;BME280;18731;42.830;24.390;2023-01-15T12:08:01;94562.69;;;17.85;38.63
32243;BME280;18731;42.830;24.390;2023-01-15T12:10:32;94570.16;;;18.47;38.08
32243;BME280;18731;42.830;24.390;2023-01-15T12:16:13;94546.81;;;19.95;34.52
32243;BME280;18731;42.830;24.390;2023-01-15T12:19:24;94544.44;;;20.96;33.11
32243;BME280;18731;42.830;24.390;2023-01-15T12:28:20;94547.41;;;21.37;32.17
32243;BME280;18731;42.830;24.390;2023-01-15T12:31:00;94543.25;;;21.88;31.79
32243;BME280;18731;42.830;24.390;2023-01-15T12:33:45;94547.88;;;22.46;30.22
32243;BME280;18731;42.830;24.390;2023-01-15T12:36:33;94548.22;;;22.52;30.22
32243;BME280;18731;42.830;24.390;2023-01-15T12:39:08;94547.69;;;22.68;29.75
32243;BME280;18731;42.830;24.390;2023-01-15T12:41:40;94542.72;;;22.59;30.18
32243;BME280;18731;42.830;24.390;2023-01-15T12:44:41;94546.56;;;22.62;29.42
32243;BME280;18731;42.830;24.390;2023-01-15T12:52:41;94524.19;;;19.12;33.77
32243;BME280;18731;42.830;24.390;2023-01-15T12:55:15;94532.22;;;17.48;36.52
32243;BME280;18731;42.830;24.390;2023-01-15T12:57:46;94535.59;;;16.21;38.77
32243;BME280;18731;42.830;24.390;2023-01-15T13:00:18;94527.13;;;15.12;40.79
32243;BME280;18731;42.830;24.390;2023-01-15T13:05:57;94524.09;;;13.14;45.36
32243;BME280;18731;42.830;24.390;2023-01-15T13:08:26;94520.88;;;12.28;47.61
32243;BME280;18731;42.830;24.390;2023-01-15T13:10:54;94521.19;;;11.41;49.65
32243;BME280;18731;42.830;24.390;2023-01-15T13:13:25;94522.22;;;11.04;51.02
32243;BME280;18731;42.830;24.390;2023-01-15T13:21:00;94517.00;;;10.03;53.61
32243;BME280;18731;42.830;24.390;2023-01-15T13:32:19;94518.16;;;9.17;56.57
32243;BME280;18731;42.830;24.390;2023-01-15T13:35:12;94521.94;;;9.08;57.04
32243;BME280;18731;42.830;24.390;2023-01-15T13:37:42;94524.16;;;8.88;57.73
32243;BME280;18731;42.830;24.390;2023-01-15T13:42:45;94521.69;;;8.57;58.87
32243;BME280;18731;42.830;24.390;2023-01-15T13:47:44;94526.84;;;8.36;59.15
32243;BME280;18731;42.830;24.390;2023-01-15T13:50:15;94515.44;;;8.36;59.63
32243;BME280;18731;42.830;24.390;2023-01-15T13:52:41;94519.47;;;8.25;59.52
32243;BME280;18731;42.830;24.390;2023-01-15T13:57:36;94513.81;;;8.00;60.90
32243;BME280;18731;42.830;24.390;2023-01-15T14:03:01;94511.22;;;7.69;61.97
32243;BME280;18731;42.830;24.390;2023-01-15T14:05:33;94501.16;;;7.49;62.45
32243;BME280;18731;42.830;24.390;2023-01-15T14:08:01;94520.69;;;7.53;63.10
32243;BME280;18731;42.830;24.390;2023-01-15T14:21:42;94530.91;;;7.29;64.64
32243;BME280;18731;42.830;24.390;2023-01-15T14:30:46;94531.72;;;7.07;65.28
32243;BME280;18731;42.830;24.390;2023-01-15T14:33:47;94536.25;;;7.06;64.94
32243;BME280;18731;42.830;24.390;2023-01-15T14:36:22;94539.16;;;6.96;65.35
32243;BME280;18731;42.830;24.390;2023-01-15T14:38:55;94543.69;;;6.96;65.47
32243;BME280;18731;42.830;24.390;2023-01-15T14:41:31;94525.53;;;6.89;66.06
32243;BME280;18731;42.830;24.390;2023-01-15T14:44:00;94535.66;;;6.87;66.41
32243;BME280;18731;42.830;24.390;2023-01-15T14:46:33;94547.06;;;6.88;66.02
32243;BME280;18731;42.830;24.390;2023-01-15T14:49:01;94525.56;;;6.67;65.96
32243;BME280;18731;42.830;24.390;2023-01-15T14:51:30;94540.75;;;6.75;66.34
32243;BME280;18731;42.830;24.390;2023-01-15T14:54:01;94543.50;;;6.70;66.44
32243;BME280;18731;42.830;24.390;2023-01-15T14:56:36;94548.28;;;6.59;66.80
32243;BME280;18731;42.830;24.390;2023-01-15T15:01:49;94544.69;;;6.41;67.19
32243;BME280;18731;42.830;24.390;2023-01-15T15:06:56;94553.59;;;6.23;67.62
32243;BME280;18731;42.830;24.390;2023-01-15T15:09:31;94557.06;;;6.10;67.31
32243;BME280;18731;42.830;24.390;2023-01-15T15:12:53;94553.47;;;5.92;68.45
32243;BME280;18731;42.830;24.390;2023-01-15T15:14:59;94553.81;;;5.86;68.07
32243;BME280;18731;42.830;24.390;2023-01-15T15:17:58;94556.69;;;5.75;68.40
32243;BME280;18731;42.830;24.390;2023-01-15T15:20:29;94551.88;;;5.64;69.38
32243;BME280;18731;42.830;24.390;2023-01-15T15:23:07;94566.78;;;5.60;69.45
32243;BME280;18731;42.830;24.390;2023-01-15T15:25:37;94563.25;;;5.51;69.80
32243;BME280;18731;42.830;24.390;2023-01-15T15:28:05;94560.41;;;5.47;69.89
32243;BME280;18731;42.830;24.390;2023-01-15T15:30:34;94565.78;;;5.42;70.46
32243;BME280;18731;42.830;24.390;2023-01-15T15:33:02;94558.13;;;5.27;70.43
32243;BME280;18731;42.830;24.390;2023-01-15T15:35:30;94559.50;;;5.24;70.55
32243;BME280;18731;42.830;24.390;2023-01-15T15:38:03;94559.31;;;5.21;70.28
32243;BME280;18731;42.830;24.390;2023-01-15T15:40:34;94555.22;;;5.09;69.61
32243;BME280;18731;42.830;24.390;2023-01-15T15:43:44;94558.97;;;5.08;70.28
32243;BME280;18731;42.830;24.390;2023-01-15T15:46:31;94560.63;;;5.04;70.58
32243;BME280;18731;42.830;24.390;2023-01-15T15:49:16;94545.56;;;4.86;70.05
32243;BME280;18731;42.830;24.390;2023-01-15T15:54:18;94566.66;;;4.91;70.20
32243;BME280;18731;42.830;24.390;2023-01-15T15:57:03;94564.16;;;4.81;70.12
32243;BME280;18731;42.830;24.390;2023-01-15T16:04:48;94566.09;;;4.43;72.24
32243;BME280;18731;42.830;24.390;2023-01-15T16:07:22;94566.38;;;4.41;72.54
32243;BME280;18731;42.830;24.390;2023-01-15T16:10:38;94561.88;;;4.42;72.39
32243;BME280;18731;42.830;24.390;2023-01-15T16:13:05;94561.72;;;4.33;72.26
32243;BME280;18731;42.830;24.390;2023-01-15T16:15:40;94565.94;;;4.34;73.00
32243;BME280;18731;42.830;24.390;2023-01-15T16:18:17;94545.81;;;4.19;72.60
32243;BME280;18731;42.830;24.390;2023-01-15T16:20:45;94563.66;;;4.28;72.06
32243;BME280;18731;42.830;24.390;2023-01-15T16:23:20;94557.03;;;4.30;71.56
32243;BME280;18731;42.830;24.390;2023-01-15T16:26:14;94566.59;;;4.26;71.44
32243;BME280;18731;42.830;24.390;2023-01-15T16:28:49;94568.03;;;4.18;72.45
32243;BME280;18731;42.830;24.390;2023-01-15T16:31:18;94568.09;;;4.13;72.44
32243;BME280;18731;42.830;24.390;2023-01-15T16:33:45;94562.72;;;4.00;73.66
32243;BME280;18731;42.830;24.390;2023-01-15T16:36:11;94540.84;;;3.75;73.33
32243;BME280;18731;42.830;24.390;2023-01-15T16:38:41;94567.06;;;3.91;74.34
32243;BME280;18731;42.830;24.390;2023-01-15T16:41:24;94565.63;;;3.79;74.83
32243;BME280;18731;42.830;24.390;2023-01-15T16:43:55;94543.25;;;3.53;75.04
32243;BME280;18731;42.830;24.390;2023-01-15T16:46:23;94563.22;;;3.59;75.59
32243;BME280;18731;42.830;24.390;2023-01-15T16:49:18;94565.41;;;3.52;75.96
32243;BME280;18731;42.830;24.390;2023-01-15T16:51:45;94567.28;;;3.51;76.47
32243;BME280;18731;42.830;24.390;2023-01-15T16:54:40;94574.06;;;3.58;76.12
32243;BME280;18731;42.830;24.390;2023-01-15T16:57:35;94568.72;;;3.63;75.82
32243;BME280;18731;42.830;24.390;2023-01-15T17:00:06;94549.09;;;3.50;75.71
32243;BME280;18731;42.830;24.390;2023-01-15T17:02:50;94565.88;;;3.59;76.21
32243;BME280;18731;42.830;24.390;2023-01-15T17:05:23;94577.72;;;3.62;75.87
32243;BME280;18731;42.830;24.390;2023-01-15T17:07:50;94566.38;;;3.61;75.99
32243;BME280;18731;42.830;24.390;2023-01-15T17:10:26;94565.31;;;3.62;75.64
32243;BME280;18731;42.830;24.390;2023-01-15T17:12:53;94566.38;;;3.61;75.33
32243;BME280;18731;42.830;24.390;2023-01-15T17:17:53;94569.78;;;3.62;74.67
32243;BME280;18731;42.830;24.390;2023-01-15T17:20:22;94574.91;;;3.53;75.96
32243;BME280;18731;42.830;24.390;2023-01-15T17:22:52;94575.03;;;3.43;75.56
32243;BME280;18731;42.830;24.390;2023-01-15T17:25:26;94574.50;;;3.41;74.61
32243;BME280;18731;42.830;24.390;2023-01-15T17:27:52;94580.91;;;3.35;74.84
32243;BME280;18731;42.830;24.390;2023-01-15T17:30:19;94558.94;;;3.15;74.82
32243;BME280;18731;42.830;24.390;2023-01-15T17:32:45;94578.59;;;3.28;74.78
32243;BME280;18731;42.830;24.390;2023-01-15T17:35:21;94574.44;;;3.22;75.06
32243;BME280;18731;42.830;24.390;2023-01-15T17:37:47;94572.09;;;3.20;75.49
32243;BME280;18731;42.830;24.390;2023-01-15T17:40:13;94560.06;;;3.09;74.97
32243;BME280;18731;42.830;24.390;2023-01-15T17:42:39;94560.81;;;3.15;74.81
32243;BME280;18731;42.830;24.390;2023-01-15T17:45:05;94564.31;;;3.05;74.85
32243;BME280;18731;42.830;24.390;2023-01-15T17:47:31;94556.38;;;3.10;74.67
32243;BME280;18731;42.830;24.390;2023-01-15T17:49:56;94542.69;;;2.79;75.63
32243;BME280;18731;42.830;24.390;2023-01-15T17:52:22;94542.41;;;2.81;75.66
32243;BME280;18731;42.830;24.390;2023-01-15T17:54:48;94533.53;;;2.72;75.81
32243;BME280;18731;42.830;24.390;2023-01-15T17:57:32;94558.44;;;2.84;76.25
32243;BME280;18731;42.830;24.390;2023-01-15T18:00:16;94557.16;;;2.82;75.79
32243;BME280;18731;42.830;24.390;2023-01-15T18:03:01;94555.84;;;2.79;76.21
32243;BME280;18731;42.830;24.390;2023-01-15T18:05:47;94546.41;;;2.73;76.15
32243;BME280;18731;42.830;24.390;2023-01-15T18:08:15;94548.81;;;2.70;75.79
32243;BME280;18731;42.830;24.390;2023-01-15T18:10:43;94545.16;;;2.66;76.17
32243;BME280;18731;42.830;24.390;2023-01-15T18:13:09;94553.03;;;2.71;76.07
32243;BME280;18731;42.830;24.390;2023-01-15T18:15:37;94551.47;;;2.70;75.72